Time;durP1;ratioP1;P1;durP2;ratioP2;P2;SDS_P1;SDS_P2;PMS_P1;PMS_P2;Temp;Humidity;BMP_temperature;BMP_pressure;BME280_temperature;BME280_humidity;BME280_pressure;Samples;Min_cycle;Max_cycle;Signal;HPM_P1;HPM_P2
2022/12/24 00:02:08;;;;;;;54.00;19.67;;;;;;;;;;5053931;28;20040;-84
2022/12/24 00:04:52;;;;;;;47.40;18.65;;;;;;;;;;5039090;28;20095;-84
2022/12/24 00:07:36;;;;;;;58.55;20.15;;;;;;;;;;5054129;28;20520;-84
2022/12/24 00:10:21;;;;;;;52.33;18.60;;;;;;;;;;5052680;28;20095;-84
2022/12/24 00:13:06;;;;;;;56.97;20.00;;;;;;;;;;5052945;28;20044;-85
2022/12/24 00:15:50;;;;;;;54.13;19.95;;;;;;;;;;5052890;28;20091;-84
2022/12/24 00:18:35;;;;;;;65.32;21.38;;;;;;;;;;5052948;28;20039;-84
2022/12/24 00:21:20;;;;;;;62.97;19.75;;;;;;;;;;5051729;28;20040;-83
2022/12/24 00:24:05;;;;;;;48.85;18.85;;;;;;;;;;5053766;28;20059;-83
2022/12/24 00:26:49;;;;;;;60.97;20.42;;;;;;;;;;5053660;28;20047;-84
2022/12/24 00:29:34;;;;;;;63.15;21.80;;;;;;;;;;5052436;28;20508;-84
2022/12/24 00:32:18;;;;;;;78.22;22.70;;;;;;;;;;5052349;28;20116;-83
2022/12/24 00:35:03;;;;;;;76.07;22.38;;;;;;;;;;5052687;28;20135;-83
2022/12/24 00:37:48;;;;;;;68.25;20.48;;;;;;;;;;5052580;28;20064;-83
2022/12/24 00:40:33;;;;;;;82.07;23.13;;;;;;;;;;5052243;28;20142;-84
2022/12/24 00:43:17;;;;;;;60.03;19.90;;;;;;;;;;5052215;28;20086;-84
2022/12/24 00:46:01;;;;;;;63.70;19.30;;;;;;;;;;5038445;28;20052;-84
2022/12/24 00:48:46;;;;;;;68.45;21.55;;;;;;;;;;5053300;28;20044;-84
2022/12/24 00:51:31;;;;;;;61.13;19.67;;;;;;;;;;5052948;28;20106;-84
2022/12/24 00:54:16;;;;;;;65.47;20.15;;;;;;;;;;5052930;28;20543;-84
2022/12/24 00:57:01;;;;;;;67.63;19.90;;;;;;;;;;5053142;28;20094;-84
2022/12/24 00:59:45;;;;;;;71.25;20.63;;;;;;;;;;5038274;28;20118;-84
2022/12/24 01:02:30;;;;;;;94.75;23.70;;;;;;;;;;5037862;28;20523;-84
2022/12/24 01:05:14;;;;;;;71.07;20.95;;;;;;;;;;5037716;28;20076;-84
2022/12/24 01:07:59;;;;;;;72.20;20.63;;;;;;;;;;5053003;28;20040;-83
2022/12/24 01:10:43;;;;;;;62.25;20.45;;;;;;;;;;5052957;28;20103;-84
2022/12/24 01:13:28;;;;;;;98.70;24.30;;;;;;;;;;5052749;28;20543;-84
2022/12/24 01:16:18;;;;;;;87.43;24.23;;;;;;;;;;5051880;28;20044;-84
2022/12/24 01:19:03;;;;;;;63.90;22.30;;;;;;;;;;5052904;28;20537;-84
2022/12/24 01:21:48;;;;;;;98.00;23.75;;;;;;;;;;5051767;28;20055;-84
2022/12/24 01:24:32;;;;;;;88.22;23.23;;;;;;;;;;5052561;28;20035;-84
2022/12/24 01:27:17;;;;;;;81.22;23.85;;;;;;;;;;5051419;28;20055;-84
2022/12/24 01:30:02;;;;;;;103.85;23.52;;;;;;;;;;5051673;28;20064;-84
2022/12/24 01:32:46;;;;;;;88.78;23.98;;;;;;;;;;5052642;28;20040;-84
2022/12/24 01:35:31;;;;;;;81.93;23.10;;;;;;;;;;5051444;28;20051;-83
2022/12/24 01:38:15;;;;;;;93.72;22.83;;;;;;;;;;5052603;28;20040;-84
2022/12/24 01:44:16;;;;;;;86.05;23.50;;;;;;;;;;5051809;28;20044;-83
2022/12/24 01:47:08;;;;;;;95.65;23.38;;;;;;;;;;5051464;28;20083;-84
2022/12/24 01:49:59;;;;;;;114.78;26.20;;;7.00;99.90;;;;;;5051588;28;20083;-83
2022/12/24 01:52:44;;;;;;;75.00;23.23;;;;;;;;;;5052235;28;20040;-84
2022/12/24 01:55:28;;;;;;;88.00;24.17;;;;;;;;;;5037216;28;20079;-84
2022/12/24 01:58:15;;;;;;;69.75;22.02;;;7.00;99.90;;;;;;5052552;28;20082;-83
2022/12/24 02:01:00;;;;;;;92.90;24.40;;;;;;;;;;5051448;28;20191;-84
2022/12/24 02:03:44;;;;;;;88.07;24.38;;;;;;;;;;5052081;28;20397;-83
2022/12/24 02:06:29;;;;;;;78.38;24.42;;;;;;;;;;5037165;28;20048;-84
2022/12/24 02:09:14;;;;;;;68.80;23.67;;;;;;;;;;5037380;28;20039;-84
2022/12/24 02:11:58;;;;;;;90.43;26.50;;;;;;;;;;5037555;28;20087;-84
2022/12/24 02:14:43;;;;;;;74.40;24.33;;;;;;;;;;5051032;28;20432;-83
2022/12/24 02:17:28;;;;;;;78.03;23.40;;;;;;;;;;5050930;28;20063;-84
2022/12/24 02:20:38;;;;;;;74.18;24.38;;;7.10;99.90;;;;;;5051391;28;20037;-84
2022/12/24 02:23:29;;;;;;;70.90;24.13;;;;;;;;;;5032176;28;20068;-84
2022/12/24 02:26:13;;;;;;;71.65;23.13;;;;;;;;;;5051077;28;20048;-83
2022/12/24 02:29:13;;;;;;;62.80;22.55;;;7.20;99.90;;;;;;5050973;28;20044;-85
2022/12/24 02:32:02;;;;;;;62.45;20.73;;;7.20;99.90;;;;;;5052278;28;20055;-85
2022/12/24 02:35:01;;;;;;;63.92;21.95;;;7.30;99.90;;;;;;5051812;28;20032;-84
2022/12/24 02:37:53;;;;;;;65.43;21.10;;;7.30;99.90;;;;;;5050857;28;20036;-84
2022/12/24 02:40:42;;;;;;;54.15;20.00;;;7.40;99.90;;;;;;5050957;28;20500;-83
2022/12/24 02:43:34;;;;;;;55.00;19.73;;;7.40;99.90;;;;;;5051935;28;20051;-85
2022/12/24 02:46:26;;;;;;;52.90;21.08;;;7.50;99.90;;;;;;5055789;28;20087;-84
2022/12/24 02:49:11;;;;;;;49.85;19.10;;;;;;;;;;5055805;28;20043;-84
2022/12/24 02:51:55;;;;;;;55.85;19.00;;;;;;;;;;5040791;28;20151;-84
2022/12/24 02:54:40;;;;;;;46.33;16.95;;;;;;;;;;5054176;28;20040;-84
2022/12/24 02:57:34;;;;;;;41.35;16.17;;;;;;;;;;5054571;28;20118;-84
2022/12/24 03:00:21;;;;;;;52.20;17.98;;;7.70;99.90;;;;;;5055395;28;20040;-84
2022/12/24 03:03:27;;;;;;;40.15;16.27;;;7.80;99.90;;;;;;5055531;28;20052;-83
2022/12/24 03:06:26;;;;;;;41.22;16.02;;;7.90;99.90;;;;;;5054342;28;20078;-84
2022/12/24 03:09:26;;;;;;;39.03;14.65;;;7.90;99.90;;;;;;5055299;28;20047;-84
2022/12/24 03:12:15;;;;;;;33.83;13.38;;;8.00;99.90;;;;;;5055213;28;20044;-83
2022/12/24 03:15:01;;;;;;;40.03;13.52;;;;;;;;;;5055161;28;20043;-84
2022/12/24 03:17:47;;;;;;;32.13;11.95;;;8.00;99.90;;;;;;5053793;28;20039;-84
2022/12/24 03:20:41;;;;;;;32.80;11.65;;;;;;;;;;5054700;28;20039;-84
2022/12/24 03:23:26;;;;;;;43.55;11.93;;;;;;;;;;5053884;28;20083;-84
2022/12/24 03:26:12;;;;;;;33.92;10.30;;;;;;;;;;5053522;28;20078;-84
2022/12/24 03:28:57;;;;;;;30.83;10.20;;;;;;;;;;5053455;28;20044;-84
2022/12/24 03:31:50;;;;;;;39.33;8.90;;;8.20;99.90;;;;;;5053583;28;20056;-84
2022/12/24 03:34:34;;;;;;;38.10;9.23;;;;;;;;;;5054531;28;20087;-83
2022/12/24 03:37:19;;;;;;;34.60;7.47;;;;;;;;;;5039675;28;20102;-84
2022/12/24 03:40:05;;;;;;;39.05;7.55;;;;;;;;;;5054561;28;20052;-84
2022/12/24 03:42:50;;;;;;;39.80;6.38;;;;;;;;;;5053272;28;20095;-84
2022/12/24 03:45:34;;;;;;;37.97;8.57;;;;;;;;;;5054561;28;20044;-84
2022/12/24 03:48:19;;;;;;;47.80;6.88;;;;;;;;;;5053425;28;20040;-85
2022/12/24 03:51:03;;;;;;;36.83;6.25;;;;;;;;;;5054407;28;20060;-85
2022/12/24 03:53:48;;;;;;;30.33;6.70;;;;;;;;;;5052984;28;20036;-84
2022/12/24 03:56:33;;;;;;;34.75;6.55;;;;;;;;;;5053585;28;20075;-84
2022/12/24 03:59:17;;;;;;;38.75;7.50;;;;;;;;;;5039253;28;20044;-85
2022/12/24 04:02:02;;;;;;;44.55;5.60;;;;;;;;;;5053264;28;20039;-84
2022/12/24 04:04:46;;;;;;;49.75;8.27;;;;;;;;;;5052894;28;20090;-84
2022/12/24 04:07:32;;;;;;;40.25;6.63;;;;;;;;;;5054065;28;20119;-84
2022/12/24 04:10:16;;;;;;;34.85;5.50;;;;;;;;;;5052862;28;20083;-84
2022/12/24 04:13:00;;;;;;;40.75;5.30;;;;;;;;;;5038638;28;20528;-85
2022/12/24 04:15:45;;;;;;;48.55;5.30;;;;;;;;;;5052568;28;20044;-84
2022/12/24 04:18:30;;;;;;;43.05;6.00;;;;;;;;;;5054039;28;20036;-84
2022/12/24 04:21:15;;;;;;;46.85;6.03;;;;;;;;;;5053801;28;20040;-83
2022/12/24 04:23:59;;;;;;;41.72;5.78;;;;;;;;;;5052382;28;20036;-83
2022/12/24 04:26:44;;;;;;;32.67;5.72;;;;;;;;;;5038329;28;20052;-84
2022/12/24 04:29:28;;;;;;;38.97;6.35;;;;;;;;;;5053895;28;20071;-83
2022/12/24 04:32:13;;;;;;;42.60;5.63;;;;;;;;;;5052856;28;20087;-84
2022/12/24 04:34:57;;;;;;;38.17;4.97;;;;;;;;;;5052358;28;20036;-83
2022/12/24 04:37:42;;;;;;;45.28;6.30;;;;;;;;;;5053212;28;20051;-85
2022/12/24 04:40:26;;;;;;;51.17;8.40;;;;;;;;;;5053528;28;20542;-84
2022/12/24 04:43:11;;;;;;;38.53;4.78;;;;;;;;;;5053686;28;20074;-83
2022/12/24 04:45:55;;;;;;;34.00;6.45;;;;;;;;;;5053093;28;20043;-83
2022/12/24 04:48:41;;;;;;;34.10;5.63;;;;;;;;;;5053474;28;20092;-84
2022/12/24 04:51:26;;;;;;;40.45;6.13;;;;;;;;;;5052495;28;20079;-84
2022/12/24 04:54:10;;;;;;;41.38;7.20;;;;;;;;;;5053306;28;20591;-84
2022/12/24 04:56:55;;;;;;;44.17;5.97;;;;;;;;;;5052999;28;20040;-84
2022/12/24 04:59:39;;;;;;;52.58;6.43;;;;;;;;;;5053307;28;20170;-83
2022/12/24 05:02:24;;;;;;;41.67;6.40;;;;;;;;;;5053166;28;20040;-84
2022/12/24 05:05:09;;;;;;;38.47;7.85;;;;;;;;;;5051731;28;20393;-84
2022/12/24 05:07:54;;;;;;;34.95;5.20;;;;;;;;;;5052454;28;20048;-84
2022/12/24 05:10:38;;;;;;;53.75;6.55;;;;;;;;;;5051994;28;20040;-83
2022/12/24 05:13:24;;;;;;;32.47;6.75;;;;;;;;;;5037936;28;20136;-84
2022/12/24 05:16:09;;;;;;;43.53;6.50;;;;;;;;;;5051673;28;20162;-84
2022/12/24 05:18:53;;;;;;;44.75;5.15;;;;;;;;;;5052308;28;20039;-84
2022/12/24 05:21:38;;;;;;;50.03;7.00;;;;;;;;;;5051922;28;20103;-84
2022/12/24 05:27:25;;;;;;;49.17;9.27;;;;;;;;;;5051893;28;20547;-85
2022/12/24 05:30:10;;;;;;;48.30;7.57;;;;;;;;;;5052576;28;20060;-84
2022/12/24 05:32:54;;;;;;;47.30;7.13;;;;;;;;;;5051409;28;20455;-83
2022/12/24 05:35:39;;;;;;;51.40;6.72;;;;;;;;;;5051778;28;20118;-83
2022/12/24 05:38:24;;;;;;;45.90;6.43;;;;;;;;;;5051619;28;20087;-84
2022/12/24 05:41:08;;;;;;;51.30;7.35;;;;;;;;;;5037342;28;20048;-83
2022/12/24 05:43:52;;;;;;;50.53;7.03;;;;;;;;;;5051308;28;20481;-84
2022/12/24 05:46:37;;;;;;;43.63;6.97;;;;;;;;;;5051722;28;20547;-83
2022/12/24 05:49:21;;;;;;;61.92;9.18;;;;;;;;;;5052674;28;20091;-84
2022/12/24 05:52:06;;;;;;;47.30;5.82;;;;;;;;;;5052317;28;20047;-84
2022/12/24 05:54:50;;;;;;;53.47;7.03;;;;;;;;;;5051526;28;20040;-83
2022/12/24 05:57:35;;;;;;;56.03;8.02;;;;;;;;;;5051568;28;20048;-84
2022/12/24 06:00:20;;;;;;;35.13;5.30;;;;;;;;;;5052578;28;20401;-84
2022/12/24 06:03:04;;;;;;;35.17;6.00;;;;;;;;;;5052069;28;20044;-85
2022/12/24 06:06:06;;;;;;;35.72;7.10;;;8.30;99.90;;;;;;5051453;28;20052;-84
2022/12/24 06:08:52;;;;;;;33.92;5.53;;;8.20;99.90;;;;;;5037357;28;20075;-84
2022/12/24 06:11:36;;;;;;;48.65;7.13;;;;;;;;;;5052364;28;20087;-83
2022/12/24 06:14:21;;;;;;;45.70;7.93;;;;;;;;;;5051263;28;20043;-83
2022/12/24 06:17:05;;;;;;;52.50;7.65;;;;;;;;;;5050977;28;20044;-84
2022/12/24 06:19:50;;;;;;;49.40;9.07;;;;;;;;;;5055589;28;20082;-83
2022/12/24 06:22:34;;;;;;;41.28;6.22;;;;;;;;;;5041094;28;20040;-83
2022/12/24 06:25:19;;;;;;;39.22;6.15;;;;;;;;;;5055752;28;20078;-83
2022/12/24 06:28:03;;;;;;;51.42;9.27;;;;;;;;;;5054753;28;20190;-83
2022/12/24 06:30:49;;;;;;;48.42;8.95;;;8.30;99.90;;;;;;5054761;28;20106;-84
2022/12/24 06:33:34;;;;;;;50.83;6.70;;;;;;;;;;5055042;28;20560;-83
2022/12/24 06:36:22;;;;;;;55.67;6.93;;;8.30;99.90;;;;;;5055568;28;20539;-83
2022/12/24 06:39:06;;;;;;;47.15;7.95;;;;;;;;;;5054514;28;20086;-85
2022/12/24 06:41:51;;;;;;;42.10;6.80;;;;;;;;;;5040859;28;20047;-84
2022/12/24 06:44:35;;;;;;;47.20;7.47;;;;;;;;;;5040402;28;20055;-84
2022/12/24 06:47:20;;;;;;;59.97;8.68;;;;;;;;;;5040288;28;20550;-84
2022/12/24 06:50:05;;;;;;;59.08;7.07;;;;;;;;;;5054982;28;20393;-83
2022/12/24 06:52:50;;;;;;;47.25;7.45;;;;;;;;;;5040646;28;20056;-84
2022/12/24 06:55:34;;;;;;;40.28;6.45;;;;;;;;;;5055580;28;20087;-83
2022/12/24 06:58:19;;;;;;;49.13;8.10;;;;;;;;;;5040024;28;20103;-83
2022/12/24 07:01:05;;;;;;;64.57;9.02;;;8.10;99.90;;;;;;5039929;28;20094;-84
2022/12/24 07:03:50;;;;;;;52.80;7.70;;;;;;;;;;5055501;28;20060;-83
2022/12/24 07:06:34;;;;;;;43.83;8.70;;;;;;;;;;5055186;28;20112;-84
2022/12/24 07:09:19;;;;;;;63.65;8.30;;;;;;;;;;5053900;28;20075;-83
2022/12/24 07:12:03;;;;;;;43.72;7.13;;;;;;;;;;5040134;28;20040;-84
2022/12/24 07:14:48;;;;;;;43.20;6.47;;;;;;;;;;5055290;28;20087;-83
2022/12/24 07:17:33;;;;;;;45.38;7.05;;;;;;;;;;5054063;28;20100;-83
2022/12/24 07:20:17;;;;;;;59.90;7.25;;;;;;;;;;5053692;28;20036;-84
2022/12/24 07:23:02;;;;;;;49.95;7.53;;;;;;;;;;5054947;28;20134;-83
2022/12/24 07:25:46;;;;;;;37.22;5.78;;;;;;;;;;5053896;28;20048;-83
2022/12/24 07:28:31;;;;;;;46.30;6.28;;;;;;;;;;5053883;28;20040;-83
2022/12/24 07:31:15;;;;;;;45.70;6.60;;;;;;;;;;5053909;28;20060;-84
2022/12/24 07:34:00;;;;;;;58.67;9.50;;;;;;;;;;5054902;28;20047;-84
2022/12/24 07:36:44;;;;;;;51.05;6.63;;;;;;;;;;5053692;28;20095;-84
2022/12/24 07:39:29;;;;;;;58.90;8.45;;;;;;;;;;5053335;28;20119;-85
2022/12/24 07:42:13;;;;;;;49.88;7.15;;;;;;;;;;5054200;28;20091;-83
2022/12/24 07:44:58;;;;;;;39.78;8.45;;;;;;;;;;5054382;28;20094;-83
2022/12/24 07:47:42;;;;;;;49.35;7.00;;;;;;;;;;5053395;28;20497;-83
2022/12/24 07:50:27;;;;;;;41.25;7.38;;;;;;;;;;5053002;28;20523;-83
2022/12/24 07:53:11;;;;;;;49.65;7.05;;;;;;;;;;5052941;28;20508;-84
2022/12/24 07:55:56;;;;;;;42.22;6.13;;;;;;;;;;5053367;28;20052;-83
2022/12/24 07:58:40;;;;;;;52.45;9.00;;;;;;;;;;5053284;28;20064;-83
2022/12/24 08:01:25;;;;;;;48.90;6.95;;;;;;;;;;5053453;28;20036;-83
2022/12/24 08:04:09;;;;;;;40.50;6.78;;;;;;;;;;5039014;28;20040;-84
2022/12/24 08:06:54;;;;;;;42.22;5.72;;;;;;;;;;5052848;28;20051;-84
2022/12/24 08:09:38;;;;;;;52.60;6.00;;;;;;;;;;5053251;28;20040;-84
2022/12/24 08:12:23;;;;;;;34.70;6.20;;;;;;;;;;5052452;28;20060;-84
2022/12/24 08:15:08;;;;;;;46.75;6.50;;;8.70;99.90;;;;;;5038940;28;20128;-84
2022/12/24 08:17:52;;;;;;;41.55;6.57;;;;;;;;;;5038774;28;20121;-84
2022/12/24 08:20:38;;;;;;;61.50;8.75;;;8.70;99.90;;;;;;5038545;28;20463;-83
2022/12/24 08:23:23;;;;;;;41.97;6.63;;;;;;;;;;5053469;28;20059;-84
2022/12/24 08:26:09;;;;;;;40.53;7.72;;;8.70;99.90;;;;;;5052799;28;20051;-83
2022/12/24 08:28:54;;;;;;;41.10;8.23;;;;;;;;;;5052744;28;20091;-84
2022/12/24 08:31:38;;;;;;;41.30;7.25;;;;;;;;;;5053619;28;20036;-83
2022/12/24 08:34:23;;;;;;;37.13;7.00;;;;;;;;;;5053285;28;20078;-83
2022/12/24 08:37:07;;;;;;;37.78;5.72;;;;;;;;;;5052652;28;20060;-83
2022/12/24 08:39:52;;;;;;;42.00;5.68;;;;;;;;;;5053682;28;20047;-84
2022/12/24 08:42:36;;;;;;;41.53;7.18;;;;;;;;;;5051518;28;20040;-83
2022/12/24 08:45:21;;;;;;;47.85;7.50;;;;;;;;;;5052207;28;20491;-83
2022/12/24 08:48:07;;;;;;;39.88;6.30;;;8.90;99.90;;;;;;5053382;28;20555;-84
2022/12/24 08:50:51;;;;;;;38.35;6.38;;;;;;;;;;5052562;28;20720;-83
2022/12/24 08:53:36;;;;;;;37.30;6.50;;;;;;;;;;5052043;28;20055;-84
2022/12/24 08:56:20;;;;;;;42.30;7.72;;;;;;;;;;5052818;28;20044;-84
2022/12/24 08:59:05;;;;;;;45.40;6.03;;;;;;;;;;5052439;28;20488;-83
2022/12/24 09:01:49;;;;;;;44.40;7.07;;;;;;;;;;5053248;28;20041;-83
2022/12/24 09:04:34;;;;;;;45.80;7.25;;;;;;;;;;5051774;28;20405;-83
2022/12/24 09:07:18;;;;;;;35.58;6.63;;;;;;;;;;5037973;28;20067;-86
2022/12/24 09:10:03;;;;;;;44.50;5.30;;;;;;;;;;5052086;28;20044;-84
2022/12/24 09:12:48;;;;;;;46.97;5.93;;;;;;;;;;5038051;28;20044;-83
2022/12/24 09:15:33;;;;;;;44.78;5.13;;;;;;;;;;5051629;28;20070;-83
2022/12/24 09:18:17;;;;;;;45.88;7.63;;;;;;;;;;5037808;28;20040;-83
2022/12/24 09:21:07;;;;;;;39.90;7.43;;;9.10;99.90;;;;;;5052882;28;20040;-82
2022/12/24 09:23:51;;;;;;;59.63;10.18;;;;;;;;;;5051730;28;20063;-83
2022/12/24 09:26:36;;;;;;;40.17;7.43;;;;;;;;;;5037275;28;20055;-84
2022/12/24 09:29:24;;;;;;;49.45;8.15;;;9.10;99.90;;;;;;5052567;28;20140;-83
2022/12/24 09:32:08;;;;;;;47.22;7.30;;;;;;;;;;5051769;28;20413;-83
2022/12/24 09:34:53;;;;;;;45.85;7.75;;;;;;;;;;5051631;28;20094;-84
2022/12/24 09:37:38;;;;;;;42.13;7.18;;;;;;;;;;5051212;28;20047;-85
2022/12/24 09:40:27;;;;;;;39.92;7.68;;;9.30;99.90;;;;;;5051550;28;20040;-83
2022/12/24 09:43:21;;;;;;;43.83;8.27;;;9.30;99.90;;;;;;5051610;28;20044;-83
2022/12/24 09:46:26;;;;;;;38.08;7.72;;;9.20;99.90;;;;;;5051480;28;20448;-83
2022/12/24 09:49:14;;;;;;;37.67;6.78;;;;;;;;;;5054491;28;20064;-86
2022/12/24 09:52:03;;;;;;;36.65;6.18;;;9.30;99.90;;;;;;5051456;28;20040;-82
2022/12/24 09:55:05;;;;;;;55.50;7.00;;;9.30;99.90;;;;;;5054344;28;20040;-83
2022/12/24 09:57:52;;;;;;;43.28;7.60;;;;;;;;;;5056077;28;20082;-83
2022/12/24 10:00:37;;;;;;;54.67;7.78;;;;;;;;;;5054851;28;20040;-83
2022/12/24 10:03:22;;;;;;;34.22;5.03;;;;;;;;;;5041320;28;20110;-83
2022/12/24 10:06:34;;;;;;;27.65;5.00;;;8.80;99.90;;;;;;5055087;28;20413;-83
2022/12/24 10:09:57;;;;;;;32.42;4.60;;;9.30;99.90;;;;;;5053444;28;20043;-83
2022/12/24 10:13:03;;;;;;;27.02;3.75;;;9.40;99.90;;;;;;5054433;28;20044;-83
2022/12/24 10:16:03;;;;;;;25.10;4.47;;;9.40;99.90;;;;;;5054532;28;20051;-83
2022/12/24 10:19:01;;;;;;;20.90;4.25;;;9.30;99.90;;;;;;5055703;28;20036;-84
2022/12/24 10:21:46;;;;;;;23.20;4.05;;;;;;;;;;5055557;28;20086;-84
2022/12/24 10:24:46;;;;;;;17.70;4.22;;;9.50;99.90;;;;;;5056310;28;20043;-85
2022/12/24 10:27:36;;;;;;;24.25;5.28;;;9.20;99.90;;;;;;5056026;28;20043;-85
2022/12/24 10:30:22;;;;;;;19.70;3.60;;;9.30;99.90;;;;;;5055662;28;20088;-84
2022/12/24 10:33:14;;;;;;;22.83;4.40;;;;;;;;;;5055880;28;20170;-83
2022/12/24 10:35:59;;;;;;;27.73;6.18;;;;;;;;;;5054771;28;20043;-83
2022/12/24 10:38:44;;;;;;;24.23;4.65;;;9.40;99.90;;;;;;5040340;28;20035;-83
2022/12/24 10:41:29;;;;;;;27.23;4.10;;;;;;;;;;5054564;28;20527;-83
2022/12/24 10:44:18;;;;;;;26.02;5.18;;;9.40;99.90;;;;;;5054504;28;20076;-84
2022/12/24 10:47:05;;;;;;;28.42;7.30;;;9.40;99.90;;;;;;5055581;28;20047;-83
2022/12/24 10:50:25;;;;;;;29.95;6.55;;;9.40;99.90;;;;;;5054133;28;20040;-84
2022/12/24 10:53:33;;;;;;;35.45;6.78;;;9.50;99.90;;;;;;5024787;28;20044;-84
2022/12/24 10:56:19;;;;;;;39.75;6.40;;;9.50;99.90;;;;;;5055407;28;20044;-84
2022/12/24 10:59:03;;;;;;;41.40;7.65;;;;;;;;;;5055377;28;20508;-83
2022/12/24 11:01:49;;;;;;;42.75;6.85;;;9.60;99.90;;;;;;5054899;28;20528;-83
2022/12/24 11:04:46;;;;;;;38.85;6.60;;;9.60;99.90;;;;;;5053733;28;20047;-83
2022/12/24 11:07:31;;;;;;;30.10;5.50;;;;;;;;;;5054142;28;20060;-83
2022/12/24 11:10:22;;;;;;;34.50;5.65;;;9.60;99.90;;;;;;5054111;28;20090;-84
2022/12/24 11:13:22;;;;;;;40.83;6.78;;;;;;;;;;5054239;28;20094;-83
2022/12/24 11:16:17;;;;;;;29.52;5.10;;;9.60;99.90;;;;;;5054045;28;20048;-83
2022/12/24 11:19:05;;;;;;;37.85;5.72;;;9.70;99.90;;;;;;5054515;28;20143;-83
2022/12/24 11:21:58;;;;;;;32.80;7.35;;;9.70;99.90;;;;;;5054592;28;20036;-83
2022/12/24 11:24:44;;;;;;;35.30;5.50;;;;;;;;;;5055929;28;20127;-83
2022/12/24 11:27:41;;;;;;;38.60;6.20;;;9.70;99.90;;;;;;5053604;28;20067;-84
2022/12/24 11:30:28;;;;;;;41.65;7.28;;;9.70;99.90;;;;;;5053338;28;20102;-84
2022/12/24 11:33:18;;;;;;;38.50;6.35;;;9.40;99.90;;;;;;5053716;28;20040;-83
2022/12/24 11:36:05;;;;;;;28.27;7.30;;;9.60;99.90;;;;;;5053254;28;20051;-84
2022/12/24 11:38:55;;;;;;;28.90;4.68;;;;;;;;;;5054303;28;20040;-84
2022/12/24 11:41:39;;;;;;;27.15;5.35;;;;;;;;;;5053627;28;20035;-83
2022/12/24 11:44:26;;;;;;;27.50;5.03;;;9.60;99.90;;;;;;5054529;28;20122;-83
2022/12/24 11:47:13;;;;;;;35.42;5.80;;;9.60;99.90;;;;;;5054352;28;20182;-83
2022/12/24 11:50:25;;;;;;;36.80;8.13;;;9.60;99.90;;;;;;5038930;28;20039;-83
2022/12/24 11:53:27;;;;;;;37.63;6.65;;;9.60;99.90;;;;;;5053347;28;20075;-83
2022/12/24 11:56:23;;;;;;;34.20;5.50;;;9.60;99.90;;;;;;5053329;28;20048;-83
2022/12/24 11:59:38;;;;;;;30.65;5.32;;;9.60;99.90;;;;;;5052955;28;20146;-84
2022/12/24 12:02:31;;;;;;;29.85;4.78;;;9.60;99.90;;;;;;5054109;28;20040;-85
2022/12/24 12:05:23;;;;;;;39.53;5.47;;;;;;;;;;5054214;28;20489;-84
2022/12/24 12:08:17;;;;;;;32.58;4.93;;;9.60;99.90;;;;;;5051677;28;20551;-83
2022/12/24 12:11:02;;;;;;;38.92;6.20;;;;;;;;;;5050876;28;20039;-86
2022/12/24 12:13:47;;;;;;;30.85;6.15;;;;;;;;;;5051582;28;20055;-87
2022/12/24 12:16:59;;;;;;;35.88;6.78;;;9.60;99.90;;;;;;5050133;28;20069;-85
2022/12/24 12:19:47;;;;;;;36.17;4.95;;;9.60;99.90;;;;;;5052061;28;20673;-84
2022/12/24 12:22:37;;;;;;;25.13;5.85;;;;;;;;;;5051988;28;20071;-84
2022/12/24 12:25:28;;;;;;;30.08;5.53;;;;;;;;;;5050723;28;20090;-87
2022/12/24 12:28:18;;;;;;;30.70;4.45;;;;;;;;;;5050777;28;20051;-85
2022/12/24 12:31:08;;;;;;;28.70;5.50;;;;;;;;;;5050193;28;20123;-85
2022/12/24 12:34:05;;;;;;;26.38;4.60;;;;;;;;;;5051366;28;20055;-85
2022/12/24 12:37:09;;;;;;;27.23;4.82;;;;;;;;;;5051168;28;20071;-91
2022/12/24 12:39:54;;;;;;;23.90;4.93;;;;;;;;;;5050356;28;20448;-84
2022/12/24 12:42:39;;;;;;;28.20;6.00;;;;;;;;;;5051591;28;20113;-84
2022/12/24 12:46:01;;;;;;;28.27;5.68;;;9.70;99.90;;;;;;5051524;28;20036;-84
2022/12/24 12:49:13;;;;;;;22.20;3.63;;;9.70;99.90;;;;;;5051127;28;20044;-84
2022/12/24 12:52:10;;;;;;;28.67;4.57;;;;;;;;;;5050976;28;20560;-84
2022/12/24 12:55:16;;;;;;;33.40;6.57;;;9.70;99.90;;;;;;5049823;28;20094;-86
2022/12/24 12:58:04;;;;;;;29.23;4.85;;;;;;;;;;5049912;28;20056;-87
2022/12/24 13:00:57;;;;;;;18.98;3.65;;;;;;;;;;5050922;28;20083;-89
2022/12/24 13:04:00;;;;;;;34.13;5.40;;;;;;;;;;5050116;28;20043;-89
2022/12/24 13:07:19;;;;;;;26.08;4.20;;;9.70;99.90;;;;;;5049991;28;20102;-84
2022/12/24 13:10:07;;;;;;;35.33;6.18;;;;;;;;;;5018025;28;20091;-84
2022/12/24 13:13:01;;;;;;;33.33;5.68;;;;;;;;;;5050747;28;20043;-84
2022/12/24 13:15:45;;;;;;;30.55;5.85;;;;;;;;;;5050064;28;20083;-84
2022/12/24 13:18:50;;;;;;;30.80;5.65;;;9.60;99.90;;;;;;5049969;28;20152;-85
2022/12/24 13:21:35;;;;;;;26.98;5.00;;;;;;;;;;5049960;28;20067;-84
2022/12/24 13:24:26;;;;;;;19.42;4.85;;;9.60;99.90;;;;;;5050681;28;20087;-84
2022/12/24 13:27:33;;;;;;;22.02;3.92;;;9.60;99.90;;;;;;5050186;28;20091;-84
2022/12/24 13:30:33;;;;;;;24.05;4.20;;;;;;;;;;5050189;28;20047;-85
2022/12/24 13:33:36;;;;;;;24.25;4.95;;;;;;;;;;5050479;28;20666;-85
2022/12/24 13:36:20;;;;;;;30.20;4.25;;;;;;;;;;5049346;28;20072;-84
2022/12/24 13:39:05;;;;;;;25.83;3.72;;;;;;;;;;5035382;28;20508;-84
2022/12/24 13:41:50;;;;;;;21.90;4.32;;;;;;;;;;5050909;28;20389;-85
2022/12/24 13:44:35;;;;;;;30.77;5.20;;;;;;;;;;5049636;28;20694;-84
2022/12/24 13:47:22;;;;;;;26.85;3.60;;;9.50;99.90;;;;;;5050303;28;20094;-84
2022/12/24 13:50:22;;;;;;;26.50;5.22;;;9.60;99.90;;;;;;5049021;28;20066;-83
2022/12/24 13:53:27;;;;;;;31.33;4.93;;;;;;;;;;5050136;28;20072;-85
2022/12/24 13:56:11;;;;;;;33.25;5.05;;;;;;;;;;5049294;28;20178;-84
2022/12/24 13:59:09;;;;;;;24.23;3.97;;;;;;;;;;5050560;28;20499;-85
2022/12/24 14:01:55;;;;;;;20.50;4.78;;;9.50;99.90;;;;;;5050244;28;20155;-84
2022/12/24 14:04:41;;;;;;;28.90;5.32;;;;;;;;;;5050448;28;20075;-84
2022/12/24 14:07:26;;;;;;;31.98;5.15;;;;;;;;;;5049094;28;20095;-84
2022/12/24 14:10:22;;;;;;;27.98;4.15;;;9.50;99.90;;;;;;5049115;28;20079;-84
2022/12/24 14:13:38;;;;;;;25.63;5.40;;;9.50;99.90;;;;;;5048881;28;20039;-85
2022/12/24 14:16:41;;;;;;;30.65;4.63;;;;;;;;;;5049041;28;20210;-84
2022/12/24 14:19:38;;;;;;;29.25;4.03;;;;;;;;;;5048979;28;20083;-84
2022/12/24 14:22:43;;;;;;;17.10;3.17;;;9.40;99.90;;;;;;5048882;28;20114;-84
2022/12/24 14:25:29;;;;;;;23.45;4.05;;;;;;;;;;5048868;28;20037;-84
2022/12/24 14:28:18;;;;;;;21.33;3.97;;;9.30;99.90;;;;;;5049947;28;20110;-84
2022/12/24 14:31:04;;;;;;;20.17;3.90;;;9.30;99.90;;;;;;5050009;28;20601;-84
2022/12/24 14:33:49;;;;;;;24.40;3.33;;;;;;;;;;5035439;28;20075;-83
2022/12/24 14:36:36;;;;;;;29.75;4.72;;;9.30;99.90;;;;;;5049232;28;20091;-84
2022/12/24 14:39:34;;;;;;;19.55;4.70;;;9.30;99.90;;;;;;5050648;28;20071;-85
2022/12/24 14:42:40;;;;;;;34.63;4.55;;;9.30;99.90;;;;;;5053530;28;20035;-85
2022/12/24 14:45:45;;;;;;;23.23;4.90;;;9.30;99.90;;;;;;5053466;28;20044;-84
2022/12/24 14:48:51;;;;;;;23.00;4.38;;;9.20;99.90;;;;;;5053430;28;20079;-84
2022/12/24 14:51:36;;;;;;;26.50;5.53;;;;;;;;;;5052755;28;20445;-84
2022/12/24 14:54:34;;;;;;;23.30;4.70;;;9.20;99.90;;;;;;5053133;28;20078;-85
2022/12/24 14:57:28;;;;;;;30.50;3.72;;;;;;;;;;5052134;28;20067;-85
2022/12/24 15:00:19;;;;;;;23.23;3.55;;;;;;;;;;5052125;28;20082;-85
2022/12/24 15:03:21;;;;;;;17.77;3.95;;;9.10;99.90;;;;;;5052307;28;20040;-86
2022/12/24 15:06:06;;;;;;;23.63;3.60;;;;;;;;;;5053215;28;20039;-85
2022/12/24 15:08:51;;;;;;;29.33;5.88;;;;;;;;;;5038293;28;20124;-84
2022/12/24 15:11:35;;;;;;;23.70;4.68;;;;;;;;;;5051994;28;20044;-84
2022/12/24 15:14:22;;;;;;;21.63;4.88;;;9.00;99.90;;;;;;5051586;28;20074;-85
2022/12/24 15:17:08;;;;;;;20.75;4.13;;;;;;;;;;5052093;28;20044;-85
2022/12/24 15:19:53;;;;;;;17.45;4.15;;;;;;;;;;5052251;28;20393;-84
2022/12/24 15:22:37;;;;;;;44.25;4.50;;;;;;;;;;5053610;28;20086;-84
2022/12/24 15:25:29;;;;;;;19.25;3.67;;;;;;;;;;5039455;28;20067;-85
2022/12/24 15:28:22;;;;;;;15.27;3.60;;;8.60;99.90;;;;;;5054284;28;20405;-85
2022/12/24 15:31:27;;;;;;;23.15;3.85;;;8.60;99.90;;;;;;5039482;28;20071;-84
2022/12/24 15:34:35;;;;;;;14.27;3.35;;;8.60;99.90;;;;;;5053610;28;20040;-84
2022/12/24 15:37:28;;;;;;;18.95;3.75;;;;;;;;;;5053168;28;20045;-84
2022/12/24 15:40:20;;;;;;;24.92;4.43;;;8.30;99.90;;;;;;5053417;28;20496;-84
2022/12/24 15:43:06;;;;;;;13.47;3.30;;;;;;;;;;5053446;28;20036;-84
2022/12/24 15:45:50;;;;;;;17.90;4.93;;;;;;;;;;5053207;28;20082;-84
2022/12/24 15:48:37;;;;;;;25.13;5.60;;;;;;;;;;5052783;28;20044;-85
2022/12/24 15:51:39;;;;;;;18.63;3.88;;;8.30;99.90;;;;;;5052822;28;20190;-84
2022/12/24 15:54:24;;;;;;;30.02;6.47;;;;;;;;;;5052965;28;20051;-85
2022/12/24 15:57:22;;;;;;;17.88;4.25;;;;;;;;;;5039413;28;20111;-85
2022/12/24 16:00:26;;;;;;;23.05;4.40;;;8.20;99.90;;;;;;5053499;28;20044;-84
2022/12/24 16:03:17;;;;;;;16.92;4.05;;;8.20;99.90;;;;;;5054294;28;20102;-85